Time;durP1;ratioP1;P1;durP2;ratioP2;P2;SDS_P1;SDS_P2;PMS_P1;PMS_P2;Temp;Humidity;BMP_temperature;BMP_pressure;BME280_temperature;BME280_humidity;BME280_pressure;Samples;Min_cycle;Max_cycle;Signal;HPM_P1;HPM_P2
2021/08/28 00:00:57;;;;;;;23.90;16.47;;;16.00;99.90;;;;;;5027217;28;20310;-72
2021/08/28 00:03:25;;;;;;;20.90;16.07;;;16.00;99.90;;;;;;5025385;28;20767;-71
2021/08/28 00:05:52;;;;;;;22.10;15.80;;;15.90;99.90;;;;;;5027978;28;20211;-71
2021/08/28 00:08:19;;;;;;;22.57;16.97;;;15.90;99.90;;;;;;5024336;28;20217;-72
2021/08/28 00:10:47;;;;;;;24.37;16.53;;;15.90;99.90;;;;;;5013393;28;20207;-72
2021/08/28 00:13:15;;;;;;;21.47;15.97;;;15.80;99.90;;;;;;5026461;28;20207;-71
2021/08/28 00:15:41;;;;;;;20.23;15.87;;;15.80;99.90;;;;;;5029641;28;20211;-72
2021/08/28 00:18:08;;;;;;;19.50;15.77;;;15.80;99.90;;;;;;5023508;28;20218;-72
2021/08/28 00:20:37;;;;;;;20.73;15.50;;;15.80;99.90;;;;;;5012393;28;20269;-72
2021/08/28 00:23:04;;;;;;;21.07;16.00;;;15.80;99.90;;;;;;5032315;28;20226;-73
2021/08/28 00:25:31;;;;;;;19.93;15.07;;;15.70;99.90;;;;;;5032897;28;20568;-72
2021/08/28 00:27:58;;;;;;;24.50;16.73;;;15.70;99.90;;;;;;5026249;28;20560;-72
2021/08/28 00:30:25;;;;;;;19.17;14.60;;;15.70;99.90;;;;;;5014960;28;20211;-72
2021/08/28 00:32:51;;;;;;;23.40;16.10;;;15.60;99.90;;;;;;5027345;28;20211;-73
2021/08/28 00:35:18;;;;;;;20.37;15.60;;;15.60;99.90;;;;;;5029584;28;20210;-72
2021/08/28 00:37:46;;;;;;;20.30;15.23;;;15.60;99.90;;;;;;5029606;28;20237;-71
2021/08/28 00:40:14;;;;;;;20.87;15.40;;;15.60;99.90;;;;;;5018152;28;20245;-72
2021/08/28 00:42:48;;;;;;;24.97;16.50;;;15.60;99.90;;;;;;5030738;28;20568;-71
2021/08/28 00:45:15;;;;;;;19.47;15.03;;;15.60;99.90;;;;;;5017110;28;20212;-71
2021/08/28 00:47:49;;;;;;;23.40;15.43;;;15.60;99.90;;;;;;5025657;28;20213;-71
2021/08/28 00:50:16;;;;;;;21.30;14.60;;;15.50;99.90;;;;;;5020187;28;20213;-71
2021/08/28 00:52:43;;;;;;;22.10;14.67;;;15.60;99.90;;;;;;5021961;28;20207;-71
2021/08/28 00:55:11;;;;;;;20.47;14.10;;;15.60;99.90;;;;;;5018209;28;20194;-71
2021/08/28 00:57:39;;;;;;;17.97;14.57;;;15.60;99.90;;;;;;5023160;28;20207;-72
2021/08/28 01:00:07;;;;;;;21.30;14.00;;;15.60;99.90;;;;;;5028114;28;20214;-71
2021/08/28 01:02:36;;;;;;;20.03;13.90;;;15.50;99.90;;;;;;5019644;28;20203;-71
2021/08/28 01:05:10;;;;;;;18.77;14.10;;;15.50;99.90;;;;;;5030473;28;20234;-71
2021/08/28 01:07:43;;;;;;;22.20;14.33;;;15.60;99.90;;;;;;5021139;28;20210;-71
2021/08/28 01:10:14;;;;;;;20.90;14.13;;;15.60;99.90;;;;;;5029781;28;20210;-72
2021/08/28 01:12:45;;;;;;;21.27;15.53;;;15.50;99.90;;;;;;5025440;28;20218;-72
2021/08/28 01:15:16;;;;;;;19.10;14.53;;;15.50;99.90;;;;;;5024383;28;20205;-72
2021/08/28 01:17:48;;;;;;;17.17;13.57;;;15.50;99.90;;;;;;5015325;28;20656;-71
2021/08/28 01:20:23;;;;;;;20.67;13.80;;;15.40;99.90;;;;;;5024130;28;20565;-71
2021/08/28 01:22:52;;;;;;;20.17;13.60;;;15.40;99.90;;;;;;5024696;28;20210;-71
2021/08/28 01:25:21;;;;;;;20.37;14.07;;;15.40;99.90;;;;;;5025089;28;20583;-71
2021/08/28 01:27:54;;;;;;;20.07;15.20;;;15.30;99.90;;;;;;5026595;28;20215;-72
2021/08/28 01:30:22;;;;;;;19.40;14.77;;;15.20;99.90;;;;;;5013723;28;20207;-71
2021/08/28 01:32:51;;;;;;;18.93;14.20;;;15.20;99.90;;;;;;5029158;28;20203;-71
2021/08/28 01:35:21;;;;;;;19.87;14.37;;;15.20;99.90;;;;;;5026619;28;20796;-72
2021/08/28 01:37:48;;;;;;;18.73;14.07;;;15.20;99.90;;;;;;5031685;28;20230;-71
2021/08/28 01:40:17;;;;;;;19.53;14.03;;;15.10;99.90;;;;;;5022725;28;20246;-71
2021/08/28 01:42:46;;;;;;;18.03;13.50;;;15.10;99.90;;;;;;5028491;28;20310;-72
2021/08/28 01:45:15;;;;;;;23.60;14.93;;;15.10;99.90;;;;;;5027649;28;20219;-71
2021/08/28 01:47:43;;;;;;;18.67;13.83;;;15.10;99.90;;;;;;5030392;28;20285;-72
2021/08/28 01:50:15;;;;;;;21.87;14.73;;;15.10;99.90;;;;;;5019968;28;20212;-72
2021/08/28 01:52:42;;;;;;;17.70;13.83;;;15.10;99.90;;;;;;5029842;28;20206;-71
2021/08/28 01:55:10;;;;;;;18.47;14.50;;;15.10;99.90;;;;;;5016478;28;20225;-71
2021/08/28 01:57:37;;;;;;;21.50;15.10;;;15.10;99.90;;;;;;5031450;28;20213;-70
2021/08/28 02:00:04;;;;;;;18.00;14.37;;;15.10;99.90;;;;;;5026532;28;20246;-71
2021/08/28 02:02:31;;;;;;;19.63;14.57;;;15.10;99.90;;;;;;5031152;28;20214;-72
2021/08/28 02:05:00;;;;;;;21.77;14.60;;;15.00;99.90;;;;;;5020851;28;20613;-71
2021/08/28 02:07:35;;;;;;;22.70;14.67;;;15.00;99.90;;;;;;5025892;28;20206;-72
2021/08/28 02:10:08;;;;;;;20.70;14.57;;;15.00;99.90;;;;;;5031809;28;20217;-72
2021/08/28 02:12:38;;;;;;;19.60;14.13;;;15.00;99.90;;;;;;5032306;28;20207;-71
2021/08/28 02:15:09;;;;;;;17.73;14.33;;;15.00;99.90;;;;;;5034880;28;20206;-71
2021/08/28 02:17:42;;;;;;;19.10;15.27;;;14.90;99.90;;;;;;5027563;28;20206;-73
2021/08/28 02:20:15;;;;;;;22.13;15.00;;;14.90;99.90;;;;;;5034491;28;20235;-72
2021/08/28 02:22:45;;;;;;;22.73;15.10;;;14.80;99.90;;;;;;5033238;28;21124;-72
2021/08/28 02:25:26;;;;;;;19.50;14.43;;;14.80;99.90;;;;;;5034431;28;20611;-72
2021/08/28 02:28:00;;;;;;;23.30;14.67;;;14.80;99.90;;;;;;5029801;28;20238;-72
2021/08/28 02:30:28;;;;;;;21.53;14.80;;;14.80;99.90;;;;;;5034642;28;20648;-71
2021/08/28 02:32:56;;;;;;;20.30;15.20;;;14.80;99.90;;;;;;5033468;28;20218;-71
2021/08/28 02:35:25;;;;;;;19.73;14.53;;;14.80;99.90;;;;;;5034643;28;20202;-71
2021/08/28 02:37:52;;;;;;;32.13;17.10;;;14.70;99.90;;;;;;5033547;28;20230;-71
2021/08/28 02:40:22;;;;;;;21.37;15.93;;;14.70;99.90;;;;;;5034217;28;20272;-72
2021/08/28 02:42:50;;;;;;;22.90;14.80;;;14.70;99.90;;;;;;5034028;28;20242;-71
2021/08/28 02:45:20;;;;;;;19.70;14.10;;;14.70;99.90;;;;;;5034914;28;20218;-72
2021/08/28 02:47:48;;;;;;;20.27;15.23;;;14.70;99.90;;;;;;5034279;28;20626;-71
2021/08/28 02:50:16;;;;;;;24.37;16.23;;;14.70;99.90;;;;;;5034388;28;20207;-71
2021/08/28 02:52:46;;;;;;;20.57;14.87;;;14.70;99.90;;;;;;5024108;28;20226;-72
2021/08/28 02:55:15;;;;;;;19.07;15.37;;;14.70;99.90;;;;;;5028578;28;20210;-71
2021/08/28 02:57:46;;;;;;;20.83;14.93;;;14.70;99.90;;;;;;5024492;28;20209;-73
2021/08/28 03:00:15;;;;;;;21.53;14.97;;;14.70;99.90;;;;;;5029368;28;20213;-72
2021/08/28 03:02:43;;;;;;;22.43;15.63;;;14.70;99.90;;;;;;5022082;28;20208;-71
2021/08/28 03:05:12;;;;;;;17.90;13.73;;;14.70;99.90;;;;;;5017743;28;20215;-71
2021/08/28 03:07:40;;;;;;;18.30;13.70;;;14.70;99.90;;;;;;5026831;28;20258;-71
2021/08/28 03:10:10;;;;;;;22.53;14.80;;;14.70;99.90;;;;;;5026750;28;20605;-72
2021/08/28 03:12:38;;;;;;;18.27;14.00;;;14.60;99.90;;;;;;5028556;28;20241;-71
2021/08/28 03:15:06;;;;;;;18.50;13.90;;;14.60;99.90;;;;;;5029826;28;20559;-72
2021/08/28 03:17:32;;;;;;;19.70;14.43;;;14.60;99.90;;;;;;5027528;28;20209;-72
2021/08/28 03:20:00;;;;;;;18.50;14.03;;;14.60;99.90;;;;;;5023748;28;20219;-71
2021/08/28 03:22:28;;;;;;;18.93;14.50;;;14.60;99.90;;;;;;5027978;28;20211;-72
2021/08/28 03:24:55;;;;;;;19.30;14.30;;;14.60;99.90;;;;;;5032823;28;20751;-72
2021/08/28 03:27:25;;;;;;;22.47;15.20;;;14.50;99.90;;;;;;5032102;28;20768;-72
2021/08/28 03:29:53;;;;;;;20.80;15.13;;;14.50;99.90;;;;;;5015815;28;20215;-72
2021/08/28 03:32:20;;;;;;;20.33;15.37;;;14.50;99.90;;;;;;5035518;28;20210;-71
2021/08/28 03:34:47;;;;;;;19.30;14.60;;;14.40;99.90;;;;;;5032611;28;20206;-71
2021/08/28 03:37:15;;;;;;;20.93;14.23;;;14.50;99.90;;;;;;5032629;28;20230;-72
2021/08/28 03:39:42;;;;;;;20.77;14.67;;;14.40;99.90;;;;;;5028881;28;20239;-72
2021/08/28 03:42:09;;;;;;;19.53;12.93;;;14.40;99.90;;;;;;5022540;28;20203;-71
2021/08/28 03:44:40;;;;;;;18.90;14.23;;;14.40;99.90;;;;;;5029591;28;20584;-71
2021/08/28 03:47:08;;;;;;;18.43;13.83;;;14.40;99.90;;;;;;5033072;28;20217;-72
2021/08/28 03:49:35;;;;;;;19.57;14.30;;;14.30;99.90;;;;;;5023152;28;20583;-72
2021/08/28 03:52:03;;;;;;;18.17;14.23;;;14.40;99.90;;;;;;5027501;28;20446;-73
2021/08/28 03:54:29;;;;;;;18.73;14.03;;;14.30;99.90;;;;;;5018171;28;20211;-72
2021/08/28 03:56:56;;;;;;;19.43;14.33;;;14.30;99.90;;;;;;5025392;28;20656;-72
2021/08/28 03:59:23;;;;;;;18.63;13.83;;;14.30;99.90;;;;;;5030464;28;20282;-71
2021/08/28 04:01:51;;;;;;;21.17;14.97;;;14.20;99.90;;;;;;5026474;28;20202;-72
2021/08/28 04:04:18;;;;;;;19.00;13.67;;;14.20;99.90;;;;;;5019242;28;20223;-71
2021/08/28 04:06:45;;;;;;;16.90;13.77;;;14.20;99.90;;;;;;5025816;28;20202;-72
2021/08/28 04:09:12;;;;;;;16.73;13.03;;;14.20;99.90;;;;;;5018255;28;20400;-72
2021/08/28 04:11:38;;;;;;;15.37;12.50;;;14.20;99.90;;;;;;5029681;28;20210;-72
2021/08/28 04:14:05;;;;;;;19.33;13.87;;;14.20;99.90;;;;;;5023715;28;20210;-72
2021/08/28 04:16:32;;;;;;;21.00;13.00;;;14.20;99.90;;;;;;5029418;28;20203;-72
2021/08/28 04:19:00;;;;;;;14.70;12.30;;;14.20;99.90;;;;;;5016948;28;20211;-72
2021/08/28 04:21:28;;;;;;;16.43;12.70;;;14.20;99.90;;;;;;5018673;28;20202;-71
2021/08/28 04:23:54;;;;;;;16.33;12.67;;;14.20;99.90;;;;;;5028545;28;20579;-72
2021/08/28 04:26:21;;;;;;;17.97;12.53;;;14.20;99.90;;;;;;5030567;28;20234;-71
2021/08/28 04:28:48;;;;;;;15.17;12.07;;;14.20;99.90;;;;;;5019858;28;20215;-72
2021/08/28 04:31:15;;;;;;;16.17;12.00;;;14.20;99.90;;;;;;5017820;28;20230;-71
2021/08/28 04:33:41;;;;;;;15.27;11.50;;;14.20;99.90;;;;;;5028737;28;20210;-71
2021/08/28 04:36:09;;;;;;;15.43;11.87;;;14.20;99.90;;;;;;5025657;28;20231;-72
2021/08/28 04:38:36;;;;;;;14.03;11.77;;;14.20;99.90;;;;;;5023472;28;20576;-72
2021/08/28 04:41:03;;;;;;;14.17;11.23;;;14.20;99.90;;;;;;5016632;28;20249;-71
2021/08/28 04:43:30;;;;;;;15.00;12.10;;;14.30;99.90;;;;;;5014569;28;20207;-72
2021/08/28 04:45:56;;;;;;;13.80;11.47;;;14.30;99.90;;;;;;5029143;28;20314;-71
2021/08/28 04:48:23;;;;;;;15.27;10.77;;;14.30;99.90;;;;;;5029574;28;20676;-72
2021/08/28 04:50:50;;;;;;;12.20;10.63;;;14.30;99.90;;;;;;5028940;28;20564;-71
2021/08/28 04:53:18;;;;;;;15.20;10.57;;;14.30;99.90;;;;;;5022322;28;20407;-72
2021/08/28 04:55:45;;;;;;;13.80;10.50;;;14.40;99.90;;;;;;5016226;28;20204;-71
2021/08/28 04:58:12;;;;;;;13.60;10.93;;;14.40;99.90;;;;;;5031174;28;20229;-68
2021/08/28 05:00:39;;;;;;;15.80;11.27;;;14.50;99.90;;;;;;5022668;28;20587;-68
2021/08/28 05:03:05;;;;;;;15.07;11.00;;;14.50;99.90;;;;;;5029920;28;20211;-68
2021/08/28 05:05:32;;;;;;;13.43;11.07;;;14.50;99.90;;;;;;5019310;28;20219;-70
2021/08/28 05:07:59;;;;;;;13.87;10.93;;;14.60;99.90;;;;;;5020733;28;20222;-70
2021/08/28 05:10:27;;;;;;;13.43;10.67;;;14.60;99.90;;;;;;5023789;28;20214;-69
2021/08/28 05:12:54;;;;;;;16.37;11.03;;;14.60;99.90;;;;;;5024051;28;20207;-68
2021/08/28 05:15:22;;;;;;;12.10;10.77;;;14.60;99.90;;;;;;5027664;28;20213;-69
2021/08/28 05:17:49;;;;;;;17.30;11.97;;;14.70;99.90;;;;;;5023019;28;20208;-69
2021/08/28 05:20:15;;;;;;;13.93;11.40;;;14.70;99.90;;;;;;5023600;28;20207;-70
2021/08/28 05:22:42;;;;;;;14.23;11.53;;;14.70;99.90;;;;;;5024342;28;20675;-69
2021/08/28 05:25:10;;;;;;;15.03;11.17;;;14.70;99.90;;;;;;5023375;28;20223;-70
2021/08/28 05:27:38;;;;;;;16.17;11.50;;;14.80;99.90;;;;;;5027595;28;20207;-68
2021/08/28 05:30:06;;;;;;;15.07;11.20;;;14.80;99.90;;;;;;5012967;28;20215;-68
2021/08/28 05:32:32;;;;;;;20.47;13.60;;;14.80;99.90;;;;;;5025315;28;20202;-68
2021/08/28 05:34:59;;;;;;;16.93;12.70;;;14.90;99.90;;;;;;5024928;28;20644;-72
2021/08/28 05:37:26;;;;;;;16.37;12.63;;;14.90;99.90;;;;;;5024336;28;20719;-72
2021/08/28 05:39:53;;;;;;;15.20;11.87;;;14.90;99.90;;;;;;5014773;28;20968;-72
2021/08/28 05:42:19;;;;;;;15.20;12.37;;;14.90;99.90;;;;;;5017054;28;20203;-72
2021/08/28 05:44:47;;;;;;;15.93;12.10;;;15.00;99.90;;;;;;5025044;28;20226;-72
2021/08/28 05:47:14;;;;;;;18.27;12.87;;;15.00;99.90;;;;;;5025767;28;20202;-72
2021/08/28 05:49:41;;;;;;;13.70;11.20;;;15.00;99.90;;;;;;5026757;28;20214;-72
2021/08/28 05:52:08;;;;;;;16.10;12.53;;;15.10;99.90;;;;;;5034851;28;20207;-72
2021/08/28 05:54:34;;;;;;;15.07;12.40;;;15.10;99.90;;;;;;5023424;28;20208;-72
2021/08/28 05:57:01;;;;;;;16.50;12.10;;;15.10;99.90;;;;;;5033698;28;20222;-72
2021/08/28 05:59:28;;;;;;;15.70;11.30;;;15.20;99.90;;;;;;5030246;28;20695;-69
2021/08/28 06:01:56;;;;;;;15.70;11.63;;;15.20;99.90;;;;;;5033007;28;20301;-68
2021/08/28 06:04:23;;;;;;;16.43;12.77;;;15.20;99.90;;;;;;5019040;28;20683;-69
2021/08/28 06:06:50;;;;;;;16.83;11.07;;;15.30;99.90;;;;;;5017081;28;20692;-69
2021/08/28 06:09:17;;;;;;;16.33;11.80;;;15.40;99.90;;;;;;5024992;28;20234;-68
2021/08/28 06:11:43;;;;;;;15.13;12.23;;;15.40;99.90;;;;;;5017182;28;20579;-69
2021/08/28 06:14:10;;;;;;;13.07;10.60;;;15.50;99.90;;;;;;5019710;28;20218;-69
2021/08/28 06:16:37;;;;;;;13.57;10.90;;;15.50;99.90;;;;;;5022775;28;20199;-69
2021/08/28 06:19:05;;;;;;;15.27;11.07;;;15.60;99.90;;;;;;5017732;28;20206;-68
2021/08/28 06:21:33;;;;;;;15.80;10.87;;;15.70;99.90;;;;;;5022092;28;20211;-69
2021/08/28 06:24:00;;;;;;;13.33;10.97;;;15.70;99.90;;;;;;5028988;28;20211;-69
2021/08/28 06:26:27;;;;;;;12.80;10.27;;;15.80;99.90;;;;;;5028046;28;20277;-71
2021/08/28 06:28:54;;;;;;;15.20;11.10;;;15.80;99.90;;;;;;5033738;28;20206;-72
2021/08/28 06:31:21;;;;;;;12.67;10.50;;;15.90;99.90;;;;;;5035132;28;20635;-70
2021/08/28 06:33:48;;;;;;;14.50;10.87;;;16.00;99.90;;;;;;5034856;28;20218;-70
2021/08/28 06:36:16;;;;;;;14.83;10.40;;;16.10;99.90;;;;;;5033705;28;20222;-70
2021/08/28 06:38:43;;;;;;;13.03;10.07;;;16.20;99.90;;;;;;5033793;28;20211;-70
2021/08/28 06:41:10;;;;;;;14.30;11.80;;;16.30;99.90;;;;;;5022721;28;20719;-70
2021/08/28 06:43:37;;;;;;;13.43;9.93;;;16.40;99.90;;;;;;5034150;28;20198;-71
2021/08/28 06:46:03;;;;;;;16.17;11.87;;;16.50;99.90;;;;;;5034123;28;20682;-70
2021/08/28 06:48:32;;;;;;;14.13;11.57;;;16.60;99.90;;;;;;5032274;28;20205;-72
2021/08/28 06:50:59;;;;;;;13.10;10.90;;;16.70;99.90;;;;;;5036530;28;20257;-70
2021/08/28 06:53:27;;;;;;;12.67;10.47;;;16.70;99.90;;;;;;5031789;28;20217;-70
2021/08/28 06:55:53;;;;;;;12.60;10.53;;;16.80;99.90;;;;;;5033990;28;20209;-69
2021/08/28 06:58:20;;;;;;;14.23;11.13;;;16.90;99.90;;;;;;5033417;28;20210;-67
2021/08/28 07:00:47;;;;;;;12.50;9.90;;;17.00;99.90;;;;;;5033378;28;20203;-70
2021/08/28 07:03:14;;;;;;;13.83;10.83;;;17.00;99.90;;;;;;5031498;28;20207;-70
2021/08/28 07:05:40;;;;;;;14.50;11.03;;;17.10;99.90;;;;;;5032893;28;20325;-71
2021/08/28 07:08:07;;;;;;;15.50;11.47;;;17.10;99.90;;;;;;5031894;28;20210;-72
2021/08/28 07:10:35;;;;;;;15.27;12.83;;;17.20;99.90;;;;;;5030287;28;20721;-67
2021/08/28 07:13:02;;;;;;;15.67;12.60;;;17.20;99.90;;;;;;5032856;28;20245;-69
2021/08/28 07:15:29;;;;;;;17.43;13.27;;;17.30;99.90;;;;;;5029195;28;20203;-69
2021/08/28 07:17:55;;;;;;;15.30;12.63;;;17.30;99.90;;;;;;5028449;28;20591;-69
2021/08/28 07:20:22;;;;;;;17.13;13.33;;;17.40;99.90;;;;;;5033312;28;20552;-70
2021/08/28 07:22:49;;;;;;;15.93;12.80;;;17.50;99.90;;;;;;5030118;28;20667;-68
2021/08/28 07:25:16;;;;;;;16.37;13.00;;;17.60;99.90;;;;;;5030254;28;20679;-69
2021/08/28 07:27:44;;;;;;;17.40;13.33;;;17.70;99.90;;;;;;5024384;28;20222;-70
2021/08/28 07:30:12;;;;;;;16.07;12.80;;;17.70;99.90;;;;;;5028808;28;20214;-71
2021/08/28 07:32:38;;;;;;;15.63;13.10;;;17.80;99.90;;;;;;5029876;28;20202;-70
2021/08/28 07:35:07;;;;;;;14.97;12.80;;;17.80;99.90;;;;;;5029687;28;20214;-70
2021/08/28 07:37:33;;;;;;;13.67;12.20;;;17.90;99.90;;;;;;5028416;28;20651;-74
2021/08/28 07:40:00;;;;;;;17.47;12.70;;;17.90;99.90;;;;;;5030742;28;20596;-73
2021/08/28 07:42:27;;;;;;;15.37;12.30;;;18.00;99.90;;;;;;5031267;28;20210;-73
2021/08/28 07:44:55;;;;;;;14.83;11.30;;;18.00;99.90;;;;;;5031381;28;20210;-73
2021/08/28 07:47:22;;;;;;;14.03;10.77;;;18.10;99.90;;;;;;5031410;28;20226;-72
2021/08/28 07:49:49;;;;;;;14.47;10.97;;;18.10;99.90;;;;;;5032004;28;20207;-69
2021/08/28 07:52:18;;;;;;;13.23;10.30;;;18.10;99.90;;;;;;5030516;28;20203;-72
2021/08/28 07:54:45;;;;;;;12.13;10.00;;;18.20;99.90;;;;;;5028449;28;20206;-72
2021/08/28 07:57:12;;;;;;;16.97;10.80;;;18.30;99.90;;;;;;5031694;28;20210;-74
2021/08/28 07:59:41;;;;;;;12.37;10.23;;;18.20;99.90;;;;;;5031030;28;20880;-73
2021/08/28 08:02:09;;;;;;;13.10;10.32;;;18.30;99.90;;;;;;5022829;28;20245;-72
2021/08/28 08:04:36;;;;;;;11.90;9.82;;;18.30;99.90;;;;;;5029331;28;20250;-71
2021/08/28 08:07:03;;;;;;;13.00;10.80;;;18.40;99.90;;;;;;5029536;28;20231;-71
2021/08/28 08:09:30;;;;;;;12.63;9.65;;;18.50;99.90;;;;;;5030783;28;20680;-71
2021/08/28 08:11:57;;;;;;;13.93;10.73;;;18.60;99.90;;;;;;5028250;28;20202;-71
2021/08/28 08:14:24;;;;;;;14.90;11.40;;;18.70;99.90;;;;;;5030327;28;20585;-71
2021/08/28 08:16:50;;;;;;;16.60;12.32;;;18.80;99.90;;;;;;5021439;28;20210;-71
2021/08/28 08:19:19;;;;;;;15.38;11.23;;;18.70;99.90;;;;;;5028060;28;20207;-72
2021/08/28 08:21:45;;;;;;;12.52;10.57;;;18.80;99.90;;;;;;5021016;28;20229;-75
2021/08/28 08:24:12;;;;;;;15.38;10.55;;;18.80;99.90;;;;;;5024348;28;20215;-70
2021/08/28 08:26:39;;;;;;;11.13;9.18;;;18.90;99.90;;;;;;5019677;28;20223;-68
2021/08/28 08:29:06;;;;;;;11.10;8.95;;;18.90;99.90;;;;;;5017327;28;20675;-70
2021/08/28 08:31:33;;;;;;;10.18;8.52;;;18.80;99.90;;;;;;5028471;28;20218;-71
2021/08/28 08:33:59;;;;;;;12.90;10.07;;;18.80;99.90;;;;;;5030232;28;20225;-69
2021/08/28 08:36:27;;;;;;;14.82;9.70;;;18.80;99.90;;;;;;5028299;28;20234;-70
2021/08/28 08:38:54;;;;;;;11.85;9.25;;;18.80;99.90;;;;;;5029877;28;20213;-70
2021/08/28 08:41:24;;;;;;;10.68;8.27;;;18.80;99.90;;;;;;5030720;28;20265;-74
2021/08/28 08:43:53;;;;;;;10.60;8.10;;;18.80;99.90;;;;;;5030284;28;20245;-73
2021/08/28 08:46:22;;;;;;;10.43;8.88;;;18.80;99.90;;;;;;5033440;28;20225;-73
2021/08/28 08:48:49;;;;;;;12.07;9.00;;;18.90;99.90;;;;;;5033498;28;20198;-73
2021/08/28 08:51:17;;;;;;;11.18;8.93;;;18.90;99.90;;;;;;5030127;28;20234;-72
2021/08/28 08:53:47;;;;;;;10.77;8.15;;;18.90;99.90;;;;;;5019549;28;20213;-72
2021/08/28 08:56:13;;;;;;;9.38;7.50;;;18.90;99.90;;;;;;5024749;28;20634;-73
2021/08/28 08:58:40;;;;;;;10.68;7.38;;;18.90;99.90;;;;;;5029131;28;20582;-73
2021/08/28 09:01:08;;;;;;;6.55;5.82;;;19.00;99.90;;;;;;5029024;28;20659;-75
2021/08/28 09:03:35;;;;;;;7.22;6.13;;;19.00;99.90;;;;;;5029237;28;20705;-73
2021/08/28 09:06:02;;;;;;;7.75;6.13;;;19.00;99.90;;;;;;5024385;28;20464;-73
2021/08/28 09:08:29;;;;;;;6.85;5.85;;;18.90;99.90;;;;;;5017732;28;20207;-71
2021/08/28 09:10:57;;;;;;;6.60;5.15;;;18.90;99.90;;;;;;5030447;28;20206;-72
2021/08/28 09:13:26;;;;;;;5.90;4.93;;;18.90;99.90;;;;;;5031297;28;20206;-74
2021/08/28 09:15:55;;;;;;;3.88;3.55;;;18.90;99.90;;;;;;5024816;28;20266;-74
2021/08/28 09:18:23;;;;;;;4.80;4.30;;;18.90;99.90;;;;;;5031100;28;20206;-74
2021/08/28 09:20:50;;;;;;;5.35;4.05;;;19.00;99.90;;;;;;5015668;28;20699;-72
2021/08/28 09:23:19;;;;;;;5.73;5.10;;;19.00;99.90;;;;;;5029572;28;20207;-72
2021/08/28 09:25:49;;;;;;;5.68;4.88;;;19.00;99.90;;;;;;5026138;28;20214;-73
2021/08/28 09:28:17;;;;;;;6.72;4.93;;;19.10;99.90;;;;;;5020112;28;20213;-75
2021/08/28 09:30:45;;;;;;;6.25;4.85;;;19.10;99.90;;;;;;5027169;28;20256;-75
2021/08/28 09:33:14;;;;;;;5.43;4.80;;;19.20;99.90;;;;;;5036689;28;20673;-72
2021/08/28 09:35:43;;;;;;;5.33;4.43;;;19.30;99.90;;;;;;5034025;28;20207;-75
2021/08/28 09:38:12;;;;;;;6.82;5.30;;;19.20;99.90;;;;;;5035848;28;20600;-74
2021/08/28 09:40:40;;;;;;;12.73;5.45;;;19.20;99.90;;;;;;5033935;28;20230;-73
2021/08/28 09:43:09;;;;;;;6.15;4.70;;;19.30;99.90;;;;;;5025680;28;20211;-73
2021/08/28 09:45:38;;;;;;;7.55;5.07;;;19.30;99.90;;;;;;5034256;28;20233;-72
2021/08/28 09:48:07;;;;;;;9.48;4.90;;;19.20;99.90;;;;;;5034341;28;20583;-71
2021/08/28 09:50:36;;;;;;;596.72;53.30;;;19.20;99.90;;;;;;5033804;28;20210;-70
2021/08/28 09:53:06;;;;;;;6.20;4.60;;;19.20;99.90;;;;;;5024529;28;20217;-70
2021/08/28 09:55:35;;;;;;;5.40;4.40;;;19.30;99.90;;;;;;5029051;28;20234;-70
2021/08/28 09:58:02;;;;;;;5.20;4.40;;;19.30;99.90;;;;;;5033495;28;20216;-72
2021/08/28 10:00:30;;;;;;;5.75;4.22;;;19.30;99.90;;;;;;5034295;28;20210;-70
2021/08/28 10:03:04;;;;;;;5.95;4.00;;;19.40;99.90;;;;;;5033980;28;20245;-71
2021/08/28 10:05:32;;;;;;;4.90;4.40;;;19.50;99.90;;;;;;5033515;28;20199;-72
2021/08/28 10:08:02;;;;;;;5.00;4.50;;;19.60;99.90;;;;;;5034430;28;20235;-73
2021/08/28 10:10:32;;;;;;;5.00;4.45;;;19.60;99.90;;;;;;5023623;28;20213;-72
2021/08/28 10:13:00;;;;;;;4.38;3.92;;;19.70;99.90;;;;;;5017592;28;20221;-69
2021/08/28 10:15:27;;;;;;;4.72;3.80;;;19.80;99.90;;;;;;5019282;28;20237;-70
2021/08/28 10:17:56;;;;;;;4.60;4.20;;;19.80;99.90;;;;;;5019687;28;20210;-71
2021/08/28 10:20:26;;;;;;;4.30;3.80;;;20.00;99.90;;;;;;5018171;28;20367;-69
2021/08/28 10:22:55;;;;;;;5.25;4.07;;;20.00;99.90;;;;;;5021275;28;20587;-72
2021/08/28 10:25:25;;;;;;;5.60;4.00;;;20.20;99.90;;;;;;5018986;28;20222;-73
2021/08/28 10:27:53;;;;;;;4.90;4.43;;;20.10;99.90;;;;;;5032253;28;20226;-72
2021/08/28 10:30:22;;;;;;;4.55;4.10;;;20.20;99.90;;;;;;5018892;28;20214;-72
2021/08/28 10:32:50;;;;;;;5.40;4.65;;;20.20;99.90;;;;;;5024687;28;20210;-71
2021/08/28 10:35:18;;;;;;;4.65;4.20;;;20.20;99.90;;;;;;5020084;28;20207;-71
2021/08/28 10:37:47;;;;;;;6.32;4.22;;;20.20;99.90;;;;;;5019304;28;20231;-71
2021/08/28 10:40:18;;;;;;;7.03;4.30;;;20.30;99.90;;;;;;5020190;28;20700;-70
2021/08/28 10:42:45;;;;;;;5.47;4.97;;;20.20;99.90;;;;;;5023800;28;20205;-70
2021/08/28 10:45:12;;;;;;;5.07;4.38;;;20.20;99.90;;;;;;5018709;28;20200;-70
2021/08/28 10:47:39;;;;;;;5.00;4.50;;;20.20;99.90;;;;;;5026616;28;20215;-70
2021/08/28 10:50:09;;;;;;;5.50;4.78;;;20.30;99.90;;;;;;5023313;28;20203;-69
2021/08/28 10:52:38;;;;;;;6.93;5.15;;;20.30;99.90;;;;;;5025840;28;20668;-69
2021/08/28 10:55:10;;;;;;;6.13;4.72;;;20.20;99.90;;;;;;5023408;28;20217;-69
2021/08/28 10:57:37;;;;;;;5.60;4.20;;;20.10;99.90;;;;;;5019229;28;20521;-69
2021/08/28 11:00:08;;;;;;;5.22;4.32;;;20.10;99.90;;;;;;5029789;28;20567;-70
2021/08/28 11:02:51;;;;;;;5.43;4.38;;;20.10;99.90;;;;;;5031264;28;20215;-69
2021/08/28 11:05:20;;;;;;;5.63;4.63;;;20.20;99.90;;;;;;5031711;28;20552;-70
2021/08/28 11:07:47;;;;;;;4.10;3.70;;;20.20;99.90;;;;;;5030641;28;20230;-70
2021/08/28 11:10:18;;;;;;;4.20;3.72;;;20.20;99.90;;;;;;5030977;28;20207;-70
2021/08/28 11:13:00;;;;;;;4.88;4.03;;;20.30;99.90;;;;;;5030481;28;20206;-70
2021/08/28 11:15:51;;;;;;;4.78;4.10;;;20.40;99.90;;;;;;5031154;28;20276;-70
2021/08/28 11:18:40;;;;;;;4.72;4.25;;;20.40;99.90;;;;;;5028349;28;20556;-70
2021/08/28 11:21:08;;;;;;;4.60;4.20;;;20.50;99.90;;;;;;5031945;28;20671;-70
2021/08/28 11:23:42;;;;;;;4.90;4.15;;;20.60;99.90;;;;;;5031152;28;20206;-70
2021/08/28 11:26:12;;;;;;;5.28;4.20;;;20.70;99.90;;;;;;5030111;28;20202;-70
2021/08/28 11:28:41;;;;;;;5.70;4.40;;;20.70;99.90;;;;;;5031511;28;20214;-70
2021/08/28 11:31:09;;;;;;;4.93;4.45;;;20.70;99.90;;;;;;5027695;28;20219;-70
2021/08/28 11:33:37;;;;;;;5.60;4.65;;;20.70;99.90;;;;;;5032698;28;20206;-71
2021/08/28 11:36:06;;;;;;;6.85;4.32;;;20.70;99.90;;;;;;5026809;28;20276;-71
2021/08/28 11:38:38;;;;;;;5.20;4.70;;;20.60;99.90;;;;;;5029144;28;20211;-71
2021/08/28 11:41:08;;;;;;;5.00;4.50;;;20.70;99.90;;;;;;5025761;28;20743;-72
2021/08/28 11:43:38;;;;;;;5.93;4.57;;;20.70;99.90;;;;;;5027485;28;20208;-71
2021/08/28 11:46:08;;;;;;;4.88;4.38;;;20.80;99.90;;;;;;5023556;28;20207;-72
2021/08/28 11:48:36;;;;;;;5.55;4.68;;;20.80;99.90;;;;;;5028088;28;20269;-72
2021/08/28 11:51:08;;;;;;;6.32;4.85;;;20.80;99.90;;;;;;5032143;28;20221;-73
2021/08/28 11:53:38;;;;;;;6.10;4.32;;;20.90;99.90;;;;;;5027916;28;20545;-71
2021/08/28 11:56:07;;;;;;;5.10;4.05;;;21.00;99.90;;;;;;5033375;28;20218;-72
2021/08/28 11:58:47;;;;;;;6.15;4.35;;;21.00;99.90;;;;;;5026525;28;20202;-72
2021/08/28 12:01:29;;;;;;;4.78;3.97;;;21.10;99.90;;;;;;5032423;28;20213;-71
2021/08/28 12:03:58;;;;;;;5.18;3.85;;;21.00;99.90;;;;;;5029722;28;20869;-71
2021/08/28 12:06:25;;;;;;;4.88;4.10;;;21.00;99.90;;;;;;5029644;28;20627;-71
2021/08/28 12:08:52;;;;;;;4.85;4.00;;;20.90;99.90;;;;;;5028121;28;20206;-71
2021/08/28 12:11:19;;;;;;;3.47;3.10;;;20.80;99.90;;;;;;5030081;28;20229;-69
2021/08/28 12:13:47;;;;;;;3.72;3.42;;;20.80;99.90;;;;;;5032523;28;20642;-70
2021/08/28 12:16:24;;;;;;;4.13;3.40;;;20.70;99.90;;;;;;5031016;28;20215;-70
2021/08/28 12:19:04;;;;;;;4.60;3.42;;;20.60;99.90;;;;;;5031853;28;20225;-70
2021/08/28 12:21:32;;;;;;;3.97;3.55;;;20.60;99.90;;;;;;5027067;28;20213;-69
2021/08/28 12:24:12;;;;;;;4.13;3.58;;;20.50;99.90;;;;;;5030352;28;20207;-71
2021/08/28 12:26:41;;;;;;;5.00;2.80;;;20.60;99.90;;;;;;5031085;28;20205;-72
2021/08/28 12:29:08;;;;;;;4.10;3.20;;;20.70;99.90;;;;;;5026730;28;20210;-71
2021/08/28 12:31:36;;;;;;;3.20;2.88;;;20.70;99.90;;;;;;5027997;28;20695;-70
2021/08/28 12:34:03;;;;;;;5.70;3.30;;;20.80;99.90;;;;;;5026805;28;20644;-69
2021/08/28 12:36:32;;;;;;;8.52;4.20;;;21.00;99.90;;;;;;5022788;28;20249;-70
2021/08/28 12:39:04;;;;;;;3.78;3.38;;;21.10;99.90;;;;;;5030919;28;20731;-70